sensor_id;sensor_type;location;lat;lon;timestamp;temperature;humidity
72762;SHT30;60886;55.034;73.150;2023-04-24T00:00:11;8.32;75.62
72762;SHT30;60886;55.034;73.150;2023-04-24T00:03:19;8.32;75.74
72762;SHT30;60886;55.034;73.150;2023-04-24T00:06:27;8.34;75.74
72762;SHT30;60886;55.034;73.150;2023-04-24T00:09:34;8.33;75.91
72762;SHT30;60886;55.034;73.150;2023-04-24T00:12:36;8.36;76.13
72762;SHT30;60886;55.034;73.150;2023-04-24T00:15:37;8.44;75.92
72762;SHT30;60886;55.034;73.150;2023-04-24T00:18:39;8.52;75.85
72762;SHT30;60886;55.034;73.150;2023-04-24T00:21:47;8.56;75.97
72762;SHT30;60886;55.034;73.150;2023-04-24T00:24:51;8.57;76.00
72762;SHT30;60886;55.034;73.150;2023-04-24T00:27:52;8.49;76.02
72762;SHT30;60886;55.034;73.150;2023-04-24T00:30:56;8.49;76.19
72762;SHT30;60886;55.034;73.150;2023-04-24T00:34:02;8.40;76.36
72762;SHT30;60886;55.034;73.150;2023-04-24T00:37:13;8.26;76.78
72762;SHT30;60886;55.034;73.150;2023-04-24T00:40:28;8.28;77.04
72762;SHT30;60886;55.034;73.150;2023-04-24T00:43:31;8.36;77.02
72762;SHT30;60886;55.034;73.150;2023-04-24T00:46:34;8.52;76.42
72762;SHT30;60886;55.034;73.150;2023-04-24T00:49:37;8.60;76.27
72762;SHT30;60886;55.034;73.150;2023-04-24T00:52:40;8.71;75.98
72762;SHT30;60886;55.034;73.150;2023-04-24T00:55:48;8.80;75.87
72762;SHT30;60886;55.034;73.150;2023-04-24T00:58:57;8.85;75.42
72762;SHT30;60886;55.034;73.150;2023-04-24T01:02:00;8.87;75.43
72762;SHT30;60886;55.034;73.150;2023-04-24T01:05:14;8.87;75.54
72762;SHT30;60886;55.034;73.150;2023-04-24T01:08:16;8.92;75.09
72762;SHT30;60886;55.034;73.150;2023-04-24T01:11:21;8.88;74.91
72762;SHT30;60886;55.034;73.150;2023-04-24T01:14:33;8.78;75.28
72762;SHT30;60886;55.034;73.150;2023-04-24T01:17:35;8.81;75.12
72762;SHT30;60886;55.034;73.150;2023-04-24T01:20:38;8.84;75.16
72762;SHT30;60886;55.034;73.150;2023-04-24T01:23:46;8.94;74.89
72762;SHT30;60886;55.034;73.150;2023-04-24T01:26:53;8.91;74.96
72762;SHT30;60886;55.034;73.150;2023-04-24T01:29:55;8.96;75.33
72762;SHT30;60886;55.034;73.150;2023-04-24T01:32:58;8.92;75.72
72762;SHT30;60886;55.034;73.150;2023-04-24T01:36:00;8.89;76.09
72762;SHT30;60886;55.034;73.150;2023-04-24T01:39:01;8.97;76.20
72762;SHT30;60886;55.034;73.150;2023-04-24T01:42:04;9.03;76.05
72762;SHT30;60886;55.034;73.150;2023-04-24T01:45:09;9.22;75.46
72762;SHT30;60886;55.034;73.150;2023-04-24T01:48:16;9.27;75.44
72762;SHT30;60886;55.034;73.150;2023-04-24T01:51:23;9.29;75.76
72762;SHT30;60886;55.034;73.150;2023-04-24T01:54:24;9.36;75.83
72762;SHT30;60886;55.034;73.150;2023-04-24T01:57:26;9.38;76.01
72762;SHT30;60886;55.034;73.150;2023-04-24T02:00:28;9.41;76.46
72762;SHT30;60886;55.034;73.150;2023-04-24T02:03:29;9.55;76.61
72762;SHT30;60886;55.034;73.150;2023-04-24T02:06:33;9.75;77.03
72762;SHT30;60886;55.034;73.150;2023-04-24T02:09:35;9.81;76.25
72762;SHT30;60886;55.034;73.150;2023-04-24T02:12:37;9.75;76.74
72762;SHT30;60886;55.034;73.150;2023-04-24T02:15:38;9.79;76.69
72762;SHT30;60886;55.034;73.150;2023-04-24T02:18:45;9.83;76.44
72762;SHT30;60886;55.034;73.150;2023-04-24T02:21:57;9.86;76.78
72762;SHT30;60886;55.034;73.150;2023-04-24T02:24:58;9.87;76.98
72762;SHT30;60886;55.034;73.150;2023-04-24T02:28:10;9.83;77.31
72762;SHT30;60886;55.034;73.150;2023-04-24T02:31:11;9.82;77.21
72762;SHT30;60886;55.034;73.150;2023-04-24T02:34:13;9.89;77.35
72762;SHT30;60886;55.034;73.150;2023-04-24T02:37:15;10.16;76.64
72762;SHT30;60886;55.034;73.150;2023-04-24T02:40:18;10.43;76.00
72762;SHT30;60886;55.034;73.150;2023-04-24T02:43:25;10.51;75.69
72762;SHT30;60886;55.034;73.150;2023-04-24T02:46:33;10.53;74.96
72762;SHT30;60886;55.034;73.150;2023-04-24T02:49:35;10.47;75.70
72762;SHT30;60886;55.034;73.150;2023-04-24T02:52:36;10.44;75.41
72762;SHT30;60886;55.034;73.150;2023-04-24T02:55:38;10.43;75.42
72762;SHT30;60886;55.034;73.150;2023-04-24T02:58:39;10.36;75.90
72762;SHT30;60886;55.034;73.150;2023-04-24T03:01:51;10.33;75.80
72762;SHT30;60886;55.034;73.150;2023-04-24T03:04:52;10.23;75.78
72762;SHT30;60886;55.034;73.150;2023-04-24T03:07:55;10.23;75.98
72762;SHT30;60886;55.034;73.150;2023-04-24T03:10:57;10.16;76.39
72762;SHT30;60886;55.034;73.150;2023-04-24T03:13:58;10.16;75.77
72762;SHT30;60886;55.034;73.150;2023-04-24T03:17:04;10.12;75.76
72762;SHT30;60886;55.034;73.150;2023-04-24T03:20:07;10.03;76.06
72762;SHT30;60886;55.034;73.150;2023-04-24T03:23:20;9.90;76.40
72762;SHT30;60886;55.034;73.150;2023-04-24T03:26:22;9.92;76.48
72762;SHT30;60886;55.034;73.150;2023-04-24T03:29:38;9.89;76.59
72762;SHT30;60886;55.034;73.150;2023-04-24T03:32:39;9.90;76.45
72762;SHT30;60886;55.034;73.150;2023-04-24T03:35:42;9.96;76.45
72762;SHT30;60886;55.034;73.150;2023-04-24T03:38:46;9.92;76.53
72762;SHT30;60886;55.034;73.150;2023-04-24T03:42:04;9.89;76.47
72762;SHT30;60886;55.034;73.150;2023-04-24T03:45:17;9.89;76.74
72762;SHT30;60886;55.034;73.150;2023-04-24T03:48:22;9.93;76.78
72762;SHT30;60886;55.034;73.150;2023-04-24T03:51:24;9.97;76.70
72762;SHT30;60886;55.034;73.150;2023-04-24T03:54:29;9.97;76.84
72762;SHT30;60886;55.034;73.150;2023-04-24T03:57:31;10.00;76.89
72762;SHT30;60886;55.034;73.150;2023-04-24T04:00:51;9.92;76.72
72762;SHT30;60886;55.034;73.150;2023-04-24T04:04:19;9.87;77.19
72762;SHT30;60886;55.034;73.150;2023-04-24T04:07:21;9.89;77.14
72762;SHT30;60886;55.034;73.150;2023-04-24T04:10:23;9.86;76.94
72762;SHT30;60886;55.034;73.150;2023-04-24T04:13:25;9.87;77.17
72762;SHT30;60886;55.034;73.150;2023-04-24T04:16:26;10.02;76.87
72762;SHT30;60886;55.034;73.150;2023-04-24T04:19:39;10.03;76.35
72762;SHT30;60886;55.034;73.150;2023-04-24T04:22:42;10.06;76.70
72762;SHT30;60886;55.034;73.150;2023-04-24T04:25:48;10.13;76.35
72762;SHT30;60886;55.034;73.150;2023-04-24T04:28:53;10.12;76.46
72762;SHT30;60886;55.034;73.150;2023-04-24T04:31:58;10.23;76.75
72762;SHT30;60886;55.034;73.150;2023-04-24T04:35:02;10.37;76.07
72762;SHT30;60886;55.034;73.150;2023-04-24T04:38:06;10.40;76.10
72762;SHT30;60886;55.034;73.150;2023-04-24T04:41:20;10.50;75.70
72762;SHT30;60886;55.034;73.150;2023-04-24T04:44:32;10.53;75.44
72762;SHT30;60886;55.034;73.150;2023-04-24T04:47:35;10.54;74.60
72762;SHT30;60886;55.034;73.150;2023-04-24T04:50:37;10.58;74.71
72762;SHT30;60886;55.034;73.150;2023-04-24T04:53:41;10.55;74.26
72762;SHT30;60886;55.034;73.150;2023-04-24T04:56:50;10.60;74.83
72762;SHT30;60886;55.034;73.150;2023-04-24T05:00:02;10.89;74.37
72762;SHT30;60886;55.034;73.150;2023-04-24T05:03:26;10.89;73.52
72762;SHT30;60886;55.034;73.150;2023-04-24T05:06:47;10.81;73.27
72762;SHT30;60886;55.034;73.150;2023-04-24T05:09:48;10.98;72.69
72762;SHT30;60886;55.034;73.150;2023-04-24T05:12:50;11.19;72.35
72762;SHT30;60886;55.034;73.150;2023-04-24T05:15:52;11.43;70.15
72762;SHT30;60886;55.034;73.150;2023-04-24T05:18:53;11.63;70.47
72762;SHT30;60886;55.034;73.150;2023-04-24T05:22:01;11.76;69.32
72762;SHT30;60886;55.034;73.150;2023-04-24T05:25:05;11.84;70.27
72762;SHT30;60886;55.034;73.150;2023-04-24T05:28:32;12.01;69.52
72762;SHT30;60886;55.034;73.150;2023-04-24T05:31:47;12.13;70.11
72762;SHT30;60886;55.034;73.150;2023-04-24T05:34:49;12.37;68.79
72762;SHT30;60886;55.034;73.150;2023-04-24T05:37:51;12.41;67.76
72762;SHT30;60886;55.034;73.150;2023-04-24T05:40:53;12.54;67.60
72762;SHT30;60886;55.034;73.150;2023-04-24T05:43:54;12.74;67.65
72762;SHT30;60886;55.034;73.150;2023-04-24T05:46:56;12.54;66.21
72762;SHT30;60886;55.034;73.150;2023-04-24T05:49:58;12.61;65.93
72762;SHT30;60886;55.034;73.150;2023-04-24T05:53:04;12.68;65.78
72762;SHT30;60886;55.034;73.150;2023-04-24T05:56:09;12.92;65.82
72762;SHT30;60886;55.034;73.150;2023-04-24T05:59:16;12.92;65.17
72762;SHT30;60886;55.034;73.150;2023-04-24T06:02:18;12.89;65.57
72762;SHT30;60886;55.034;73.150;2023-04-24T06:05:20;13.10;65.58
72762;SHT30;60886;55.034;73.150;2023-04-24T06:08:21;13.22;65.46
72762;SHT30;60886;55.034;73.150;2023-04-24T06:11:24;13.35;64.70
72762;SHT30;60886;55.034;73.150;2023-04-24T06:14:26;13.39;62.54
72762;SHT30;60886;55.034;73.150;2023-04-24T06:17:47;13.46;62.08
72762;SHT30;60886;55.034;73.150;2023-04-24T06:20:51;13.50;61.21
72762;SHT30;60886;55.034;73.150;2023-04-24T06:23:53;13.56;61.50
72762;SHT30;60886;55.034;73.150;2023-04-24T06:26:55;13.64;62.23
72762;SHT30;60886;55.034;73.150;2023-04-24T06:30:08;13.95;60.40
72762;SHT30;60886;55.034;73.150;2023-04-24T06:33:10;14.00;59.47
72762;SHT30;60886;55.034;73.150;2023-04-24T06:36:12;14.31;59.42
72762;SHT30;60886;55.034;73.150;2023-04-24T06:39:14;14.41;58.80
72762;SHT30;60886;55.034;73.150;2023-04-24T06:42:15;14.58;58.00
72762;SHT30;60886;55.034;73.150;2023-04-24T06:45:29;14.61;57.41
72762;SHT30;60886;55.034;73.150;2023-04-24T06:48:31;14.61;57.59
72762;SHT30;60886;55.034;73.150;2023-04-24T06:51:32;14.39;57.32
72762;SHT30;60886;55.034;73.150;2023-04-24T06:54:44;14.39;57.68
72762;SHT30;60886;55.034;73.150;2023-04-24T06:57:45;14.32;57.21
72762;SHT30;60886;55.034;73.150;2023-04-24T07:00:47;13.94;57.73
72762;SHT30;60886;55.034;73.150;2023-04-24T07:03:48;13.71;59.10
72762;SHT30;60886;55.034;73.150;2023-04-24T07:06:55;13.59;59.44
72762;SHT30;60886;55.034;73.150;2023-04-24T07:10:01;13.46;59.99
72762;SHT30;60886;55.034;73.150;2023-04-24T07:13:14;13.49;61.01
72762;SHT30;60886;55.034;73.150;2023-04-24T07:16:16;13.50;60.47
72762;SHT30;60886;55.034;73.150;2023-04-24T07:19:17;13.53;59.69
72762;SHT30;60886;55.034;73.150;2023-04-24T07:22:19;13.49;60.70
72762;SHT30;60886;55.034;73.150;2023-04-24T07:25:20;13.35;60.60
72762;SHT30;60886;55.034;73.150;2023-04-24T07:28:22;13.33;61.22
72762;SHT30;60886;55.034;73.150;2023-04-24T07:31:23;13.26;61.15
72762;SHT30;60886;55.034;73.150;2023-04-24T07:34:25;12.98;62.02
72762;SHT30;60886;55.034;73.150;2023-04-24T07:37:29;12.75;63.20
72762;SHT30;60886;55.034;73.150;2023-04-24T07:40:31;12.75;63.77
72762;SHT30;60886;55.034;73.150;2023-04-24T07:43:32;12.82;63.36
72762;SHT30;60886;55.034;73.150;2023-04-24T07:46:33;12.84;63.37
72762;SHT30;60886;55.034;73.150;2023-04-24T07:49:35;12.78;62.98
72762;SHT30;60886;55.034;73.150;2023-04-24T07:52:37;12.72;63.65
72762;SHT30;60886;55.034;73.150;2023-04-24T07:55:38;12.51;63.09
72762;SHT30;60886;55.034;73.150;2023-04-24T07:58:39;12.28;63.63
72762;SHT30;60886;55.034;73.150;2023-04-24T08:01:47;12.21;64.11
72762;SHT30;60886;55.034;73.150;2023-04-24T08:04:48;12.08;64.53
72762;SHT30;60886;55.034;73.150;2023-04-24T08:07:50;11.84;65.05
72762;SHT30;60886;55.034;73.150;2023-04-24T08:10:51;11.67;65.49
72762;SHT30;60886;55.034;73.150;2023-04-24T08:13:53;11.53;65.91
72762;SHT30;60886;55.034;73.150;2023-04-24T08:17:05;11.55;65.33
72762;SHT30;60886;55.034;73.150;2023-04-24T08:20:17;11.55;65.07
72762;SHT30;60886;55.034;73.150;2023-04-24T08:23:18;11.55;64.98
72762;SHT30;60886;55.034;73.150;2023-04-24T08:26:20;11.40;65.29
72762;SHT30;60886;55.034;73.150;2023-04-24T08:29:22;11.26;65.78
72762;SHT30;60886;55.034;73.150;2023-04-24T08:32:23;11.26;66.49
72762;SHT30;60886;55.034;73.150;2023-04-24T08:35:24;11.07;66.86
72762;SHT30;60886;55.034;73.150;2023-04-24T08:38:26;11.02;66.31
72762;SHT30;60886;55.034;73.150;2023-04-24T08:41:27;11.19;66.04
72762;SHT30;60886;55.034;73.150;2023-04-24T08:44:29;11.47;64.65
72762;SHT30;60886;55.034;73.150;2023-04-24T08:47:31;11.72;63.35
72762;SHT30;60886;55.034;73.150;2023-04-24T08:50:38;11.84;62.47
72762;SHT30;60886;55.034;73.150;2023-04-24T08:53:42;11.76;62.47
72762;SHT30;60886;55.034;73.150;2023-04-24T08:56:48;11.62;62.34
72762;SHT30;60886;55.034;73.150;2023-04-24T08:59:50;11.72;62.42
72762;SHT30;60886;55.034;73.150;2023-04-24T09:02:53;11.59;60.64
72762;SHT30;60886;55.034;73.150;2023-04-24T09:05:55;11.63;58.19
72762;SHT30;60886;55.034;73.150;2023-04-24T09:08:58;11.66;56.70
72762;SHT30;60886;55.034;73.150;2023-04-24T09:12:02;11.77;54.22
72762;SHT30;60886;55.034;73.150;2023-04-24T09:15:07;11.89;52.71
72762;SHT30;60886;55.034;73.150;2023-04-24T09:18:09;11.83;52.87
72762;SHT30;60886;55.034;73.150;2023-04-24T09:21:10;11.87;53.53
72762;SHT30;60886;55.034;73.150;2023-04-24T09:24:17;12.13;52.24
72762;SHT30;60886;55.034;73.150;2023-04-24T09:27:24;12.07;51.22
72762;SHT30;60886;55.034;73.150;2023-04-24T09:30:30;11.98;50.32
72762;SHT30;60886;55.034;73.150;2023-04-24T09:33:33;11.80;50.26
72762;SHT30;60886;55.034;73.150;2023-04-24T09:36:38;11.84;50.12
72762;SHT30;60886;55.034;73.150;2023-04-24T09:39:44;11.93;48.88
72762;SHT30;60886;55.034;73.150;2023-04-24T09:42:54;12.00;50.02
72762;SHT30;60886;55.034;73.150;2023-04-24T09:46:05;12.14;50.57
72762;SHT30;60886;55.034;73.150;2023-04-24T09:49:15;12.05;50.75
72762;SHT30;60886;55.034;73.150;2023-04-24T09:52:23;12.10;49.24
72762;SHT30;60886;55.034;73.150;2023-04-24T09:55:26;12.17;46.95
72762;SHT30;60886;55.034;73.150;2023-04-24T09:58:29;12.21;44.94
72762;SHT30;60886;55.034;73.150;2023-04-24T10:01:31;12.27;45.13
72762;SHT30;60886;55.034;73.150;2023-04-24T10:04:33;12.33;44.81
72762;SHT30;60886;55.034;73.150;2023-04-24T10:07:37;12.55;45.21
72762;SHT30;60886;55.034;73.150;2023-04-24T10:10:43;12.55;42.65
72762;SHT30;60886;55.034;73.150;2023-04-24T10:13:49;12.55;43.41
72762;SHT30;60886;55.034;73.150;2023-04-24T10:16:53;12.64;38.33
72762;SHT30;60886;55.034;73.150;2023-04-24T10:20:01;12.61;35.82
72762;SHT30;60886;55.034;73.150;2023-04-24T10:23:07;12.44;34.99
72762;SHT30;60886;55.034;73.150;2023-04-24T10:26:09;12.44;34.66
72762;SHT30;60886;55.034;73.150;2023-04-24T10:29:19;12.34;34.95
72762;SHT30;60886;55.034;73.150;2023-04-24T10:32:22;12.24;35.69
72762;SHT30;60886;55.034;73.150;2023-04-24T10:35:23;12.27;36.57
72762;SHT30;60886;55.034;73.150;2023-04-24T10:38:29;12.28;36.91
72762;SHT30;60886;55.034;73.150;2023-04-24T10:41:31;12.40;37.71
72762;SHT30;60886;55.034;73.150;2023-04-24T10:44:36;12.44;37.01
72762;SHT30;60886;55.034;73.150;2023-04-24T10:47:41;12.34;36.03
72762;SHT30;60886;55.034;73.150;2023-04-24T10:50:47;12.35;37.04
72762;SHT30;60886;55.034;73.150;2023-04-24T10:53:52;12.35;37.18
72762;SHT30;60886;55.034;73.150;2023-04-24T11:00:20;12.54;34.91
72762;SHT30;60886;55.034;73.150;2023-04-24T11:03:24;12.59;35.94
72762;SHT30;60886;55.034;73.150;2023-04-24T11:09:33;12.41;32.88
72762;SHT30;60886;55.034;73.150;2023-04-24T11:12:36;12.31;31.44
72762;SHT30;60886;55.034;73.150;2023-04-24T11:15:37;12.21;30.99
72762;SHT30;60886;55.034;73.150;2023-04-24T11:18:42;12.27;31.18
72762;SHT30;60886;55.034;73.150;2023-04-24T11:22:02;12.30;29.25
72762;SHT30;60886;55.034;73.150;2023-04-24T11:25:04;12.25;29.78
72762;SHT30;60886;55.034;73.150;2023-04-24T11:28:14;12.18;30.65
72762;SHT30;60886;55.034;73.150;2023-04-24T11:31:38;12.25;31.29
72762;SHT30;60886;55.034;73.150;2023-04-24T11:34:40;12.31;31.65
72762;SHT30;60886;55.034;73.150;2023-04-24T11:37:48;12.17;31.15
72762;SHT30;60886;55.034;73.150;2023-04-24T11:40:51;12.11;31.40
72762;SHT30;60886;55.034;73.150;2023-04-24T11:43:53;12.04;31.15
72762;SHT30;60886;55.034;73.150;2023-04-24T11:46:56;11.94;28.63
72762;SHT30;60886;55.034;73.150;2023-04-24T11:50:16;11.83;27.67
72762;SHT30;60886;55.034;73.150;2023-04-24T11:53:20;11.69;27.60
72762;SHT30;60886;55.034;73.150;2023-04-24T11:56:24;11.58;28.45
72762;SHT30;60886;55.034;73.150;2023-04-24T11:59:25;11.62;27.99
72762;SHT30;60886;55.034;73.150;2023-04-24T12:02:27;11.60;28.51
72762;SHT30;60886;55.034;73.150;2023-04-24T12:05:29;11.55;28.61
72762;SHT30;60886;55.034;73.150;2023-04-24T12:08:32;11.55;28.08
72762;SHT30;60886;55.034;73.150;2023-04-24T12:11:34;11.44;25.78
72762;SHT30;60886;55.034;73.150;2023-04-24T12:14:52;11.35;26.19
72762;SHT30;60886;55.034;73.150;2023-04-24T12:17:57;11.29;26.85
72762;SHT30;60886;55.034;73.150;2023-04-24T12:21:20;11.23;27.67
72762;SHT30;60886;55.034;73.150;2023-04-24T12:24:22;11.16;29.96
72762;SHT30;60886;55.034;73.150;2023-04-24T12:27:24;11.15;31.08
72762;SHT30;60886;55.034;73.150;2023-04-24T12:30:46;11.11;31.63
72762;SHT30;60886;55.034;73.150;2023-04-24T12:33:49;11.07;29.52
72762;SHT30;60886;55.034;73.150;2023-04-24T12:36:51;10.94;29.94
72762;SHT30;60886;55.034;73.150;2023-04-24T12:40:06;10.79;29.84
72762;SHT30;60886;55.034;73.150;2023-04-24T12:43:18;10.68;30.27
72762;SHT30;60886;55.034;73.150;2023-04-24T12:46:20;10.61;31.41
72762;SHT30;60886;55.034;73.150;2023-04-24T12:49:22;10.57;30.75
72762;SHT30;60886;55.034;73.150;2023-04-24T12:52:33;10.44;30.33
72762;SHT30;60886;55.034;73.150;2023-04-24T12:55:45;10.37;31.12
72762;SHT30;60886;55.034;73.150;2023-04-24T12:58:48;10.29;30.60
72762;SHT30;60886;55.034;73.150;2023-04-24T13:01:50;10.16;30.62
72762;SHT30;60886;55.034;73.150;2023-04-24T13:04:52;10.03;30.72
72762;SHT30;60886;55.034;73.150;2023-04-24T13:07:53;9.93;30.84
72762;SHT30;60886;55.034;73.150;2023-04-24T13:10:55;9.85;30.96
72762;SHT30;60886;55.034;73.150;2023-04-24T13:13:56;9.76;31.66
72762;SHT30;60886;55.034;73.150;2023-04-24T13:16:58;9.68;32.23
72762;SHT30;60886;55.034;73.150;2023-04-24T13:19:59;9.61;32.53
72762;SHT30;60886;55.034;73.150;2023-04-24T13:23:01;9.58;31.88
72762;SHT30;60886;55.034;73.150;2023-04-24T13:26:02;9.52;31.82
72762;SHT30;60886;55.034;73.150;2023-04-24T13:29:04;9.43;32.43
72762;SHT30;60886;55.034;73.150;2023-04-24T13:32:06;9.31;32.36
72762;SHT30;60886;55.034;73.150;2023-04-24T13:35:18;9.24;31.74
72762;SHT30;60886;55.034;73.150;2023-04-24T13:38:19;9.10;32.44
72762;SHT30;60886;55.034;73.150;2023-04-24T13:41:22;9.00;32.30
72762;SHT30;60886;55.034;73.150;2023-04-24T13:44:24;8.89;32.00
72762;SHT30;60886;55.034;73.150;2023-04-24T13:47:30;8.83;32.98
72762;SHT30;60886;55.034;73.150;2023-04-24T13:50:42;8.73;33.18
72762;SHT30;60886;55.034;73.150;2023-04-24T13:53:45;8.63;33.56
72762;SHT30;60886;55.034;73.150;2023-04-24T13:56:46;8.52;33.81
72762;SHT30;60886;55.034;73.150;2023-04-24T13:59:48;8.36;34.35
72762;SHT30;60886;55.034;73.150;2023-04-24T14:02:49;8.34;34.67
72762;SHT30;60886;55.034;73.150;2023-04-24T14:05:56;8.28;34.83
72762;SHT30;60886;55.034;73.150;2023-04-24T14:08:58;8.17;35.22
72762;SHT30;60886;55.034;73.150;2023-04-24T14:11:59;8.06;35.91
72762;SHT30;60886;55.034;73.150;2023-04-24T14:15:03;7.98;35.70
72762;SHT30;60886;55.034;73.150;2023-04-24T14:18:06;7.86;35.70
72762;SHT30;60886;55.034;73.150;2023-04-24T14:21:12;7.83;35.92
72762;SHT30;60886;55.034;73.150;2023-04-24T14:24:13;7.68;36.02
72762;SHT30;60886;55.034;73.150;2023-04-24T14:27:20;7.57;35.65
72762;SHT30;60886;55.034;73.150;2023-04-24T14:30:29;7.52;35.95
72762;SHT30;60886;55.034;73.150;2023-04-24T14:33:30;7.43;36.44
72762;SHT30;60886;55.034;73.150;2023-04-24T14:36:46;7.30;36.54
72762;SHT30;60886;55.034;73.150;2023-04-24T14:39:48;7.17;36.57
72762;SHT30;60886;55.034;73.150;2023-04-24T14:43:00;7.08;36.50
72762;SHT30;60886;55.034;73.150;2023-04-24T14:46:04;6.96;37.08
72762;SHT30;60886;55.034;73.150;2023-04-24T14:49:06;6.86;37.01
72762;SHT30;60886;55.034;73.150;2023-04-24T14:52:10;6.75;37.20
72762;SHT30;60886;55.034;73.150;2023-04-24T14:55:12;6.65;37.33
72762;SHT30;60886;55.034;73.150;2023-04-24T14:58:23;6.50;37.70
72762;SHT30;60886;55.034;73.150;2023-04-24T15:01:25;6.42;37.82
72762;SHT30;60886;55.034;73.150;2023-04-24T15:04:27;6.33;37.52
72762;SHT30;60886;55.034;73.150;2023-04-24T15:07:40;6.24;37.90
72762;SHT30;60886;55.034;73.150;2023-04-24T15:10:42;6.18;37.68
72762;SHT30;60886;55.034;73.150;2023-04-24T15:13:44;6.07;37.82
72762;SHT30;60886;55.034;73.150;2023-04-24T15:16:59;6.00;38.25
72762;SHT30;60886;55.034;73.150;2023-04-24T15:20:00;5.88;38.72
72762;SHT30;60886;55.034;73.150;2023-04-24T15:23:10;5.83;38.70
72762;SHT30;60886;55.034;73.150;2023-04-24T15:26:23;5.70;38.89
72762;SHT30;60886;55.034;73.150;2023-04-24T15:29:25;5.61;39.31
72762;SHT30;60886;55.034;73.150;2023-04-24T15:32:27;5.56;39.06
72762;SHT30;60886;55.034;73.150;2023-04-24T15:35:28;5.54;38.95
72762;SHT30;60886;55.034;73.150;2023-04-24T15:38:30;5.40;39.22
72762;SHT30;60886;55.034;73.150;2023-04-24T15:41:46;5.43;39.30
72762;SHT30;60886;55.034;73.150;2023-04-24T15:44:58;5.36;39.43
72762;SHT30;60886;55.034;73.150;2023-04-24T15:48:03;5.40;39.55
72762;SHT30;60886;55.034;73.150;2023-04-24T15:51:04;5.39;39.35
72762;SHT30;60886;55.034;73.150;2023-04-24T15:54:11;5.29;39.73
72762;SHT30;60886;55.034;73.150;2023-04-24T15:57:12;5.25;39.90
72762;SHT30;60886;55.034;73.150;2023-04-24T16:00:14;5.15;40.28
72762;SHT30;60886;55.034;73.150;2023-04-24T16:03:21;5.00;40.47
72762;SHT30;60886;55.034;73.150;2023-04-24T16:06:27;4.88;40.53
72762;SHT30;60886;55.034;73.150;2023-04-24T16:09:33;4.82;40.94
72762;SHT30;60886;55.034;73.150;2023-04-24T16:12:42;4.74;40.98
72762;SHT30;60886;55.034;73.150;2023-04-24T16:15:44;4.58;41.42
72762;SHT30;60886;55.034;73.150;2023-04-24T16:18:46;4.48;41.60
72762;SHT30;60886;55.034;73.150;2023-04-24T16:21:48;4.41;41.84
72762;SHT30;60886;55.034;73.150;2023-04-24T16:24:49;4.41;41.70
72762;SHT30;60886;55.034;73.150;2023-04-24T16:27:51;4.40;41.96
72762;SHT30;60886;55.034;73.150;2023-04-24T16:30:52;4.31;42.31
72762;SHT30;60886;55.034;73.150;2023-04-24T16:33:54;4.20;42.35
72762;SHT30;60886;55.034;73.150;2023-04-24T16:37:01;4.22;42.37
72762;SHT30;60886;55.034;73.150;2023-04-24T16:40:03;4.22;42.42
72762;SHT30;60886;55.034;73.150;2023-04-24T16:43:11;4.20;42.24
72762;SHT30;60886;55.034;73.150;2023-04-24T16:46:12;4.11;42.38
72762;SHT30;60886;55.034;73.150;2023-04-24T16:49:14;4.09;42.68
72762;SHT30;60886;55.034;73.150;2023-04-24T16:52:16;4.00;42.78
72762;SHT30;60886;55.034;73.150;2023-04-24T16:55:18;3.97;43.20
72762;SHT30;60886;55.034;73.150;2023-04-24T16:58:19;3.89;43.09
72762;SHT30;60886;55.034;73.150;2023-04-24T17:01:21;3.85;43.51
72762;SHT30;60886;55.034;73.150;2023-04-24T17:04:22;3.90;43.31
72762;SHT30;60886;55.034;73.150;2023-04-24T17:07:24;3.85;43.55
72762;SHT30;60886;55.034;73.150;2023-04-24T17:10:35;3.79;43.60
72762;SHT30;60886;55.034;73.150;2023-04-24T17:13:38;3.77;43.52
72762;SHT30;60886;55.034;73.150;2023-04-24T17:16:46;3.73;45.36
72762;SHT30;60886;55.034;73.150;2023-04-24T17:19:48;3.72;44.77
72762;SHT30;60886;55.034;73.150;2023-04-24T17:22:51;3.66;43.97
72762;SHT30;60886;55.034;73.150;2023-04-24T17:25:52;3.70;44.09
72762;SHT30;60886;55.034;73.150;2023-04-24T17:28:54;3.66;44.36
72762;SHT30;60886;55.034;73.150;2023-04-24T17:32:00;3.62;44.48
72762;SHT30;60886;55.034;73.150;2023-04-24T17:35:02;3.70;44.39
72762;SHT30;60886;55.034;73.150;2023-04-24T17:38:04;3.76;45.33
72762;SHT30;60886;55.034;73.150;2023-04-24T17:41:16;3.69;46.86
72762;SHT30;60886;55.034;73.150;2023-04-24T17:44:17;3.63;45.48
72762;SHT30;60886;55.034;73.150;2023-04-24T17:47:19;3.70;45.25
72762;SHT30;60886;55.034;73.150;2023-04-24T17:50:27;3.60;46.66
72762;SHT30;60886;55.034;73.150;2023-04-24T17:53:34;3.52;47.90
72762;SHT30;60886;55.034;73.150;2023-04-24T17:56:47;3.40;48.39
72762;SHT30;60886;55.034;73.150;2023-04-24T17:59:58;3.38;49.35
72762;SHT30;60886;55.034;73.150;2023-04-24T18:03:01;3.32;49.59
72762;SHT30;60886;55.034;73.150;2023-04-24T18:06:06;3.24;49.76
72762;SHT30;60886;55.034;73.150;2023-04-24T18:09:07;3.21;49.20
72762;SHT30;60886;55.034;73.150;2023-04-24T18:12:13;3.18;48.76
72762;SHT30;60886;55.034;73.150;2023-04-24T18:15:25;3.19;49.50
72762;SHT30;60886;55.034;73.150;2023-04-24T18:18:26;3.11;50.36
72762;SHT30;60886;55.034;73.150;2023-04-24T18:21:46;3.14;50.08
72762;SHT30;60886;55.034;73.150;2023-04-24T18:24:54;3.09;50.58
72762;SHT30;60886;55.034;73.150;2023-04-24T18:27:56;3.14;49.75
72762;SHT30;60886;55.034;73.150;2023-04-24T18:30:57;3.15;49.83
72762;SHT30;60886;55.034;73.150;2023-04-24T18:33:59;3.18;50.31
72762;SHT30;60886;55.034;73.150;2023-04-24T18:37:00;3.14;49.53
72762;SHT30;60886;55.034;73.150;2023-04-24T18:40:02;3.12;49.43
72762;SHT30;60886;55.034;73.150;2023-04-24T18:43:05;3.08;51.23
72762;SHT30;60886;55.034;73.150;2023-04-24T18:46:07;2.98;51.96
72762;SHT30;60886;55.034;73.150;2023-04-24T18:49:08;2.94;52.32
72762;SHT30;60886;55.034;73.150;2023-04-24T18:52:10;2.87;52.58
72762;SHT30;60886;55.034;73.150;2023-04-24T18:55:12;2.73;52.00
72762;SHT30;60886;55.034;73.150;2023-04-24T18:58:13;2.68;51.66
72762;SHT30;60886;55.034;73.150;2023-04-24T19:01:21;2.65;51.08
72762;SHT30;60886;55.034;73.150;2023-04-24T19:04:23;2.63;51.54
72762;SHT30;60886;55.034;73.150;2023-04-24T19:07:24;2.65;52.47
72762;SHT30;60886;55.034;73.150;2023-04-24T19:10:26;2.68;51.44
72762;SHT30;60886;55.034;73.150;2023-04-24T19:13:28;2.64;51.20
72762;SHT30;60886;55.034;73.150;2023-04-24T19:16:36;2.60;52.89
72762;SHT30;60886;55.034;73.150;2023-04-24T19:19:37;2.57;51.73
72762;SHT30;60886;55.034;73.150;2023-04-24T19:22:49;2.40;51.37